Time;durP1;ratioP1;P1;durP2;ratioP2;P2;SDS_P1;SDS_P2;PMS_P1;PMS_P2;Temp;Humidity;BMP_temperature;BMP_pressure;BME280_temperature;BME280_humidity;BME280_pressure;Samples;Min_cycle;Max_cycle;Signal;HPM_P1;HPM_P2
2022/01/03 00:00:34;;;;;;;;;;;;;;;;;;4970219;28;20535;-73
2022/01/03 00:03:03;;;;;;;8.38;4.50;;;;;;;;;;4952175;28;20366;-73
2022/01/03 00:05:28;;;;;;;10.75;4.60;;;;;;;;;;4952113;28;20356;-74
2022/01/03 00:07:54;;;;;;;7.88;4.35;;;;;;;;;;4969301;28;20353;-73
2022/01/03 00:10:19;;;;;;;9.60;5.10;;;;;;;;;;4951658;28;20463;-73
2022/01/03 00:12:46;;;;;;;7.50;4.45;;;;;;;;;;4969124;28;20322;-73
2022/01/03 00:15:13;;;;;;;8.45;4.57;;;;;;;;;;4951732;28;20355;-73
2022/01/03 00:17:38;;;;;;;11.82;4.60;;;;;;;;;;4951748;28;20033;-73
2022/01/03 00:20:05;;;;;;;10.63;4.80;;;;;;;;;;4968916;28;20096;-73
2022/01/03 00:22:36;;;;;;;7.43;4.38;;;;;;;;;;4951634;28;20316;-73
2022/01/03 00:25:05;;;;;;;7.13;3.85;;;;;;;;;;4969890;28;20375;-73
2022/01/03 00:27:58;;;;;;;10.70;5.07;;;;;;;;;;4969061;28;20479;-73
2022/01/03 00:30:23;;;;;;;10.93;4.45;;;;;;;;;;4959288;28;20376;-73
2022/01/03 00:32:51;;;;;;;8.38;4.55;;;;;;;;;;4951632;28;20419;-73
2022/01/03 00:35:17;;;;;;;10.93;4.75;;;;;;;;;;4952122;28;20347;-72
2022/01/03 00:37:44;;;;;;;13.63;4.93;;;;;;;;;;4951525;28;20452;-73
2022/01/03 00:40:10;;;;;;;9.52;4.68;;;;;;;;;;4969272;28;20340;-72
2022/01/03 00:42:35;;;;;;;10.70;4.55;;;;;;;;;;4969978;28;20357;-73
2022/01/03 00:45:02;;;;;;;5.90;3.75;;;;;;;;;;4969653;28;20378;-72
2022/01/03 00:47:36;;;;;;;9.57;4.10;;;;;;;;;;4950991;28;20417;-73
2022/01/03 00:50:06;;;;;;;8.82;3.95;;;;;;;;;;4969444;28;20029;-73
2022/01/03 00:52:31;;;;;;;10.13;4.35;;;;;;;;;;4969460;28;20562;-73
2022/01/03 00:54:57;;;;;;;9.93;4.45;;;;;;;;;;4969137;28;20494;-73
2022/01/03 00:57:59;;;;;;;11.52;4.85;;;;;;;;;;4951370;28;20425;-72
2022/01/03 01:00:26;;;;;;;9.80;4.45;;;;;;;;;;4939826;28;20472;-73
2022/01/03 01:03:01;;;;;;;8.15;4.32;;;;;;;;;;4960387;28;20325;-73
2022/01/03 01:05:27;;;;;;;10.05;4.32;;;;;;;;;;4969481;28;20463;-72
2022/01/03 01:07:56;;;;;;;8.25;4.60;;;;;;;;;;4951123;28;20448;-73
2022/01/03 01:10:22;;;;;;;8.90;4.00;;;;;;;;;;4951353;28;20429;-72
2022/01/03 01:12:47;;;;;;;9.38;3.80;;;;;;;;;;4968666;28;20468;-73
2022/01/03 01:15:14;;;;;;;7.90;3.97;;;;;;;;;;4951836;28;20068;-73
2022/01/03 01:17:40;;;;;;;7.60;4.35;;;;;;;;;;4950770;28;20433;-73
2022/01/03 01:20:06;;;;;;;7.95;3.92;;;;;;;;;;4968954;28;20432;-72
2022/01/03 01:22:32;;;;;;;9.43;4.10;;;;;;;;;;4969163;28;20466;-73
2022/01/03 01:25:24;;;;;;;9.05;3.88;;;;;;;;;;4968569;28;20444;-72
2022/01/03 01:27:50;;;;;;;10.02;4.38;;;;;;;;;;4955071;28;20379;-73
2022/01/03 01:30:18;;;;;;;8.57;4.18;;;;;;;;;;4968833;28;20341;-72
2022/01/03 01:32:52;;;;;;;7.60;3.83;;;;;;;;;;4953690;28;20364;-74
2022/01/03 01:35:19;;;;;;;9.07;3.75;;;;;;;;;;4954624;28;20372;-73
2022/01/03 01:37:46;;;;;;;9.23;4.72;;;;;;;;;;4954810;28;20425;-73
2022/01/03 01:40:12;;;;;;;8.43;4.07;;;;;;;;;;4972051;28;20700;-72
2022/01/03 01:42:43;;;;;;;8.80;3.88;;;;;;;;;;4954629;28;20433;-73
2022/01/03 01:45:09;;;;;;;7.40;4.32;;;;;;;;;;4954224;28;20483;-73
2022/01/03 01:47:38;;;;;;;7.78;3.88;;;;;;;;;;4972537;28;20440;-73
2022/01/03 01:50:04;;;;;;;;;;;;;;;;;;4955103;28;20432;-73
2022/01/03 01:52:34;;;;;;;7.97;3.78;;;;;;;;;;4954299;28;20342;-73
2022/01/03 01:55:02;;;;;;;6.90;3.35;;;;;;;;;;4971272;28;20351;-73
2022/01/03 01:57:57;;;;;;;6.85;3.75;;;;;;;;;;4954002;28;20380;-73
2022/01/03 02:00:23;;;;;;;9.27;4.60;;;;;;;;;;4929107;28;20357;-73
2022/01/03 02:03:14;;;;;;;9.25;4.43;;;;;;;;;;4937710;28;20400;-73
2022/01/03 02:05:48;;;;;;;8.70;3.95;;;;;;;;;;4953787;28;20033;-73
2022/01/03 02:08:14;;;;;;;5.90;3.10;;;;;;;;;;4954082;28;20030;-73
2022/01/03 02:10:43;;;;;;;11.55;3.83;;;;;;;;;;4972603;28;20377;-72
2022/01/03 02:13:10;;;;;;;11.65;4.10;;;;;;;;;;4954311;28;20318;-73
2022/01/03 02:15:37;;;;;;;7.47;3.67;;;;;;;;;;4954405;28;20444;-73
2022/01/03 02:18:03;;;;;;;7.93;4.20;;;;;;;;;;4971512;28;20421;-73
2022/01/03 02:20:30;;;;;;;6.28;3.65;;;;;;;;;;4953090;28;20452;-73
2022/01/03 02:22:56;;;;;;;6.70;3.33;;;;;;;;;;4954182;28;20443;-73
2022/01/03 02:25:23;;;;;;;5.50;3.00;;;;;;;;;;4972590;28;20464;-73
2022/01/03 02:27:50;;;;;;;7.80;3.85;;;;;;;;;;4953736;28;20387;-73
2022/01/03 02:30:19;;;;;;;7.32;3.42;;;;;;;;;;4953594;28;20336;-73
2022/01/03 02:32:45;;;;;;;5.60;3.53;;;;;;;;;;4971165;28;20364;-73
2022/01/03 02:35:11;;;;;;;5.32;3.08;;;;;;;;;;4972069;28;20512;-72
2022/01/03 02:37:40;;;;;;;6.82;3.85;;;;;;;;;;4971101;28;20351;-73
2022/01/03 02:40:06;;;;;;;5.10;3.40;;;;;;;;;;4953253;28;20103;-73
2022/01/03 02:42:32;;;;;;;6.30;3.40;;;;;;;;;;4970629;28;20353;-72
2022/01/03 02:45:16;;;;;;;9.90;3.67;;;;;;;;;;4970865;28;20426;-73
2022/01/03 02:47:45;;;;;;;6.60;4.22;;;;;;;;;;4953045;28;20429;-73
2022/01/03 02:50:11;;;;;;;6.03;3.17;;;;;;;;;;4953566;28;20051;-73
2022/01/03 02:52:36;;;;;;;8.73;4.00;;;;;;;;;;4953508;28;20447;-73
2022/01/03 02:55:03;;;;;;;8.48;3.05;;;;;;;;;;4950571;28;20488;-73
2022/01/03 02:57:43;;;;;;;10.25;4.32;;;;;;;;;;4970551;28;20029;-73
2022/01/03 03:00:21;;;;;;;7.63;3.67;;;;;;;;;;4952730;28;20571;-73
2022/01/03 03:02:46;;;;;;;7.78;3.10;;;;;;;;;;4970297;28;20495;-73
2022/01/03 03:05:12;;;;;;;10.60;3.85;;;;;;;;;;4972118;28;20463;-73
2022/01/03 03:07:38;;;;;;;7.80;3.45;;;;;;;;;;4970164;28;20302;-73
2022/01/03 03:10:07;;;;;;;6.68;3.70;;;;;;;;;;4952979;28;20112;-72
2022/01/03 03:12:32;;;;;;;8.85;3.15;;;;;;;;;;4952768;28;20337;-73
2022/01/03 03:14:57;;;;;;;5.53;3.03;;;;;;;;;;4970657;28;20360;-72
2022/01/03 03:17:23;;;;;;;11.52;3.63;;;;;;;;;;4953227;28;20385;-73
2022/01/03 03:19:58;;;;;;;5.78;3.33;;;;;;;;;;4953061;28;20322;-73
2022/01/03 03:22:26;;;;;;;8.98;3.63;;;;;;;;;;4952380;28;20494;-73
2022/01/03 03:24:52;;;;;;;6.30;3.22;;;;;;;;;;4953463;28;20425;-73
2022/01/03 03:27:18;;;;;;;4.18;2.80;;;;;;;;;;4952375;28;20328;-73
2022/01/03 03:29:48;;;;;;;6.18;3.10;;;;;;;;;;4970958;28;20349;-73
2022/01/03 03:32:14;;;;;;;6.35;3.30;;;;;;;;;;4952639;28;20379;-73
2022/01/03 03:34:40;;;;;;;5.57;3.08;;;;;;;;;;4952276;28;20392;-73
2022/01/03 03:37:05;;;;;;;7.28;3.60;;;;;;;;;;4969945;28;20393;-72
2022/01/03 03:39:33;;;;;;;5.47;3.20;;;;;;;;;;4970711;28;20428;-72
2022/01/03 03:42:03;;;;;;;7.05;3.13;;;;;;;;;;4971157;28;20407;-73
2022/01/03 03:44:28;;;;;;;7.10;3.92;;;;;;;;;;4952816;28;20353;-73
2022/01/03 03:46:54;;;;;;;7.30;3.45;;;;;;;;;;4970498;28;20361;-73
2022/01/03 03:49:19;;;;;;;6.35;3.10;;;;;;;;;;4952134;28;20025;-73
2022/01/03 03:51:45;;;;;;;5.30;3.20;;;;;;;;;;4969502;28;20029;-73
2022/01/03 03:54:10;;;;;;;7.65;3.67;;;;;;;;;;4969573;28;20080;-73
2022/01/03 03:56:35;;;;;;;7.82;3.42;;;;;;;;;;4951938;28;20478;-73
2022/01/03 03:59:00;;;;;;;4.95;2.80;;;;;;;;;;4969598;28;20376;-73
2022/01/03 04:01:26;;;;;;;4.68;2.97;;;;;;;;;;4968876;28;20029;-72
2022/01/03 04:03:52;;;;;;;5.45;3.20;;;;;;;;;;4969313;28;20048;-73
2022/01/03 04:06:18;;;;;;;7.15;3.33;;;;;;;;;;4951752;28;20498;-74
2022/01/03 04:08:45;;;;;;;6.47;3.58;;;;;;;;;;4970622;28;20459;-72
2022/01/03 04:11:13;;;;;;;5.93;3.00;;;;;;;;;;4969833;28;20448;-73
2022/01/03 04:13:38;;;;;;;6.50;3.15;;;;;;;;;;4969295;28;20025;-73
2022/01/03 04:16:04;;;;;;;8.00;3.20;;;;;;;;;;4969542;28;20465;-74
2022/01/03 04:18:29;;;;;;;5.72;2.97;;;;;;;;;;4969314;28;20033;-73
2022/01/03 04:20:54;;;;;;;5.07;2.85;;;;;;;;;;4970402;28;20518;-73
2022/01/03 04:23:20;;;;;;;7.22;3.05;;;;;;;;;;4968908;28;20542;-72
2022/01/03 04:25:45;;;;;;;5.00;2.83;;;;;;;;;;4969054;28;20364;-73
2022/01/03 04:28:11;;;;;;;5.53;2.83;;;;;;;;;;4968799;28;20536;-73
2022/01/03 04:30:36;;;;;;;5.15;2.97;;;;;;;;;;4951324;28;20380;-73
2022/01/03 04:33:02;;;;;;;7.40;3.03;;;;;;;;;;4969229;28;20436;-72
2022/01/03 04:35:27;;;;;;;5.50;2.97;;;;;;;;;;4969277;28;20498;-73
2022/01/03 04:37:52;;;;;;;6.15;2.92;;;;;;;;;;4969763;28;20398;-73
2022/01/03 04:40:18;;;;;;;4.68;2.88;;;;;;;;;;4969084;28;20415;-73
2022/01/03 04:42:43;;;;;;;7.35;2.72;;;;;;;;;;4969319;28;20328;-73
2022/01/03 04:45:08;;;;;;;7.32;3.47;;;;;;;;;;4969249;28;20463;-73
2022/01/03 04:47:34;;;;;;;8.43;2.35;;;;;;;;;;4951453;28;20439;-73
2022/01/03 04:49:59;;;;;;;6.07;2.85;;;;;;;;;;4968840;28;20407;-72
2022/01/03 04:52:24;;;;;;;8.95;3.47;;;;;;;;;;4951620;28;20528;-73
2022/01/03 04:54:50;;;;;;;5.63;3.08;;;;;;;;;;4950806;28;20380;-73
2022/01/03 04:57:15;;;;;;;7.45;3.45;;;;;;;;;;4969319;28;20048;-72
2022/01/03 04:59:40;;;;;;;6.15;2.85;;;;;;;;;;4968837;28;20052;-73
2022/01/03 05:02:06;;;;;;;6.07;2.65;;;;;;;;;;4969290;28;20329;-73
2022/01/03 05:04:31;;;;;;;5.50;3.08;;;;;;;;;;4970517;28;20335;-74
2022/01/03 05:06:58;;;;;;;5.95;3.13;;;;;;;;;;4952739;28;20425;-73
2022/01/03 05:09:23;;;;;;;6.47;3.35;;;;;;;;;;4972731;28;20341;-74
2022/01/03 05:11:48;;;;;;;7.50;3.15;;;;;;;;;;4973317;28;20029;-73
2022/01/03 05:14:14;;;;;;;7.43;3.22;;;;;;;;;;4954924;28;20433;-73
2022/01/03 05:16:39;;;;;;;8.88;3.10;;;;;;;;;;4972979;28;20412;-73
2022/01/03 05:19:04;;;;;;;5.68;2.70;;;;;;;;;;4972574;28;20391;-74
2022/01/03 05:21:30;;;;;;;7.03;3.95;;;;;;;;;;4974408;28;20340;-73
2022/01/03 05:23:55;;;;;;;5.93;2.85;;;;;;;;;;4972778;28;20452;-73
2022/01/03 05:26:20;;;;;;;5.03;2.90;;;;;;;;;;4970881;28;20416;-72
2022/01/03 05:28:47;;;;;;;5.85;2.70;;;;;;;;;;4972929;28;20484;-72
2022/01/03 05:31:13;;;;;;;4.90;2.70;;;;;;;;;;4972840;28;20368;-74
2022/01/03 05:33:38;;;;;;;5.80;2.75;;;;;;;;;;4973322;28;20344;-72
2022/01/03 05:36:04;;;;;;;9.80;3.22;;;;;;;;;;4954476;28;20325;-73
2022/01/03 05:38:30;;;;;;;7.60;2.80;;;;;;;;;;4972117;28;20376;-73
2022/01/03 05:40:55;;;;;;;6.88;2.95;;;;;;;;;;4972320;28;20366;-73
2022/01/03 05:43:21;;;;;;;6.03;3.33;;;;;;;;;;4954416;28;20029;-72
2022/01/03 05:45:46;;;;;;;5.05;2.80;;;;;;;;;;4972646;28;20383;-72
2022/01/03 05:48:11;;;;;;;5.72;2.40;;;;;;;;;;4972168;28;20360;-72
2022/01/03 05:50:37;;;;;;;5.30;2.60;;;;;;;;;;4972106;28;20456;-73
2022/01/03 05:53:02;;;;;;;8.50;3.25;;;;;;;;;;4971816;28;20508;-73
2022/01/03 05:55:27;;;;;;;4.90;2.88;;;;;;;;;;4953975;28;20539;-72
2022/01/03 05:57:54;;;;;;;6.85;3.17;;;;;;;;;;4971861;28;20459;-72
2022/01/03 06:00:20;;;;;;;5.70;2.53;;;;;;;;;;4972654;28;20325;-73
2022/01/03 06:02:46;;;;;;;6.78;2.60;;;;;;;;;;4954937;28;20340;-72
2022/01/03 06:05:32;;;;;;;5.57;3.15;;;;;;;;;;4971648;28;20329;-73
2022/01/03 06:07:58;;;;;;;5.07;2.72;;;;;;;;;;4956520;28;20108;-73
2022/01/03 06:10:23;;;;;;;5.03;2.95;;;;;;;;;;4953989;28;20040;-73
2022/01/03 06:12:49;;;;;;;4.60;2.80;;;;;;;;;;4971687;28;20468;-73
2022/01/03 06:15:15;;;;;;;6.40;3.20;;;;;;;;;;4971848;28;20319;-73
2022/01/03 06:17:42;;;;;;;6.05;2.67;;;;;;;;;;4938051;28;20415;-73
2022/01/03 06:20:07;;;;;;;6.90;3.15;;;;;;;;;;4953513;28;20467;-73
2022/01/03 06:22:33;;;;;;;5.65;3.13;;;;;;;;;;4972827;28;20380;-73
2022/01/03 06:24:58;;;;;;;5.03;2.60;;;;;;;;;;4971671;28;20464;-73
2022/01/03 06:27:23;;;;;;;5.22;2.47;;;;;;;;;;4969980;28;20360;-73
2022/01/03 06:29:49;;;;;;;4.45;2.33;;;;;;;;;;4971258;28;20049;-73
2022/01/03 06:32:14;;;;;;;8.80;3.35;;;;;;;;;;4972168;28;20393;-73
2022/01/03 06:34:39;;;;;;;6.63;3.03;;;;;;;;;;4963079;28;20305;-74
2022/01/03 06:37:05;;;;;;;7.05;3.28;;;;;;;;;;4991401;28;20032;-74
2022/01/03 06:39:30;;;;;;;5.75;3.45;;;;;;;;;;4988596;28;20025;-74
2022/01/03 06:41:56;;;;;;;6.47;2.85;;;;;;;;;;4989228;28;20497;-74
2022/01/03 06:44:21;;;;;;;6.30;3.05;;;;;;;;;;4991252;28;20523;-73
2022/01/03 06:46:48;;;;;;;7.55;2.75;;;;;;;;;;4989855;28;20382;-74
2022/01/03 06:49:14;;;;;;;5.25;2.92;;;;;;;;;;4990632;28;20103;-73
2022/01/03 06:51:39;;;;;;;7.07;2.50;;;;;;;;;;4971753;28;20428;-73
2022/01/03 06:54:06;;;;;;;5.80;3.03;;;;;;;;;;4990127;28;20551;-74
2022/01/03 06:56:32;;;;;;;5.00;2.72;;;;;;;;;;4991179;28;20405;-74
2022/01/03 06:58:57;;;;;;;6.88;2.60;;;;;;;;;;4988962;28;20381;-74
2022/01/03 07:01:23;;;;;;;5.65;3.30;;;;;;;;;;4990178;28;20310;-74
2022/01/03 07:03:48;;;;;;;6.18;2.90;;;;;;;;;;4973060;28;20406;-74
2022/01/03 07:06:14;;;;;;;5.90;2.95;;;;;;;;;;4990080;28;20033;-74
2022/01/03 07:08:39;;;;;;;4.70;2.63;;;;;;;;;;4990186;28;20380;-74
2022/01/03 07:11:04;;;;;;;5.45;2.42;;;;;;;;;;4990222;28;20401;-74
2022/01/03 07:13:39;;;;;;;4.43;2.50;;;;;;;;;;4972220;28;20449;-74
2022/01/03 07:19:00;;;;;;;6.72;2.85;;;;;;;;;;4991287;28;20099;-73
2022/01/03 07:21:27;;;;;;;3.83;2.53;;;;;;;;;;4989816;28;20403;-74
2022/01/03 07:23:53;;;;;;;4.35;2.65;;;;;;;;;;4988532;28;20044;-74
2022/01/03 07:26:19;;;;;;;5.78;2.50;;;;;;;;;;4972641;28;20432;-73
2022/01/03 07:28:44;;;;;;;6.68;2.97;;;;;;;;;;4988911;28;20083;-74
2022/01/03 07:31:10;;;;;;;6.30;2.53;;;;;;;;;;4988411;28;20380;-74
2022/01/03 07:33:35;;;;;;;5.10;2.25;;;;;;;;;;4991537;28;20325;-74
2022/01/03 07:36:00;;;;;;;5.80;3.22;;;;;;;;;;4989709;28;20460;-74
2022/01/03 07:38:27;;;;;;;7.10;2.40;;;;;;;;;;4988039;28;20021;-74
2022/01/03 07:40:52;;;;;;;3.75;2.38;;;;;;;;;;4989349;28;20371;-73
2022/01/03 07:43:18;;;;;;;5.65;2.80;;;;;;;;;;4988289;28;20352;-74
2022/01/03 07:45:43;;;;;;;5.32;2.67;;;;;;;;;;4988056;28;20356;-73
2022/01/03 07:48:08;;;;;;;4.40;2.42;;;;;;;;;;4989507;28;20025;-74
2022/01/03 07:50:33;;;;;;;6.65;3.38;;;;;;;;;;4989583;28;20052;-74
2022/01/03 07:53:00;;;;;;;6.07;3.03;;;;;;;;;;4990216;28;20313;-74
2022/01/03 07:55:26;;;;;;;5.40;3.13;;;;;;;;;;4989666;28;20427;-74
2022/01/03 07:57:52;;;;;;;4.70;2.75;;;;;;;;;;4972345;28;20362;-74
2022/01/03 08:00:18;;;;;;;5.60;2.58;;;;;;;;;;4987952;28;20095;-74
2022/01/03 08:02:44;;;;;;;7.53;2.90;;;;;;;;;;4991055;28;20416;-74
2022/01/03 08:05:12;;;;;;;5.65;2.42;;;;;;;;;;4989174;28;20029;-74
2022/01/03 08:07:38;;;;;;;5.55;2.20;;;;;;;;;;4971395;28;20383;-74
2022/01/03 08:10:05;;;;;;;5.38;2.70;;;;;;;;;;4989406;28;20399;-74
2022/01/03 08:12:30;;;;;;;4.68;2.42;;;;;;;;;;4971433;28;20424;-74
2022/01/03 08:14:56;;;;;;;4.35;2.40;;;;;;;;;;4988973;28;20371;-74
2022/01/03 08:17:21;;;;;;;6.03;2.70;;;;;;;;;;4989454;28;20326;-74
2022/01/03 08:19:46;;;;;;;6.13;2.55;;;;;;;;;;4988708;28;20387;-74
2022/01/03 08:22:12;;;;;;;6.53;2.40;;;;;;;;;;4989258;28;20428;-75
2022/01/03 08:24:37;;;;;;;6.38;2.90;;;;;;;;;;4989431;28;20416;-74
2022/01/03 08:27:03;;;;;;;5.85;2.53;;;;;;;;;;4989236;28;20347;-74
2022/01/03 08:29:28;;;;;;;4.82;2.33;;;;;;;;;;4987879;28;20447;-74
2022/01/03 08:31:53;;;;;;;5.40;2.42;;;;;;;;;;4971217;28;20416;-74
2022/01/03 08:34:19;;;;;;;5.07;2.67;;;;;;;;;;4988901;28;20351;-74
2022/01/03 08:36:44;;;;;;;6.97;3.08;;;;;;;;;;4988912;28;20345;-74
2022/01/03 08:39:10;;;;;;;6.07;3.35;;;;;;;;;;4988767;28;20029;-74
2022/01/03 08:41:35;;;;;;;7.80;2.80;;;;;;;;;;4990480;28;20420;-74
2022/01/03 08:44:01;;;;;;;4.00;2.72;;;;;;;;;;4974882;28;20025;-74
2022/01/03 08:46:26;;;;;;;9.20;2.80;;;;;;;;;;4992516;28;20389;-74
2022/01/03 08:48:52;;;;;;;5.30;2.63;;;;;;;;;;4993154;28;20152;-74
2022/01/03 08:51:17;;;;;;;5.47;2.45;;;;;;;;;;4974735;28;20052;-74
2022/01/03 08:53:43;;;;;;;6.00;2.38;;;;;;;;;;4991853;28;20090;-74
2022/01/03 08:56:08;;;;;;;4.55;2.47;;;;;;;;;;4991064;28;20341;-74
2022/01/03 08:58:34;;;;;;;4.57;2.42;;;;;;;;;;4992672;28;20348;-73
2022/01/03 09:00:59;;;;;;;6.70;2.70;;;;;;;;;;4990723;28;20422;-74
2022/01/03 09:03:25;;;;;;;7.32;2.40;;;;;;;;;;4975475;28;20321;-74
2022/01/03 09:05:53;;;;;;;6.97;3.05;;;;;;;;;;4974322;28;20090;-73
2022/01/03 09:08:19;;;;;;;10.73;3.03;;;;;;;;;;4991509;28;20688;-74
2022/01/03 09:10:44;;;;;;;5.25;3.20;;;;;;;;;;4991492;28;20424;-74
2022/01/03 09:13:09;;;;;;;5.22;2.65;;;;;;;;;;4991543;28;20444;-74
2022/01/03 09:15:37;;;;;;;4.80;2.50;;;;;;;;;;4992463;28;20309;-74
2022/01/03 09:18:03;;;;;;;6.75;3.10;;;;;;;;;;4992301;28;20395;-74
2022/01/03 09:20:28;;;;;;;4.30;2.47;;;;;;;;;;4992240;28;20324;-74
2022/01/03 09:22:56;;;;;;;7.65;3.20;;;;;;;;;;4992114;28;20395;-74
2022/01/03 09:30:47;;;;;;;8.02;2.97;;;;;;;;;;4991795;28;20495;-74
2022/01/03 09:33:13;;;;;;;8.15;3.00;;;;;;;;;;4990874;28;20629;-74
2022/01/03 09:35:39;;;;;;;8.00;2.75;;;;;;;;;;4992162;28;20368;-73
2022/01/03 09:38:05;;;;;;;4.15;2.53;;;;;;;;;;4990600;28;20443;-74
2022/01/03 09:40:31;;;;;;;5.82;2.67;;;;;;;;;;4974461;28;20455;-74
2022/01/03 09:42:58;;;;;;;4.78;2.63;;;;;;;;;;4983811;28;20142;-74
2022/01/03 09:45:33;;;;;;;5.68;2.33;;;;;;;;;;4974326;28;20471;-74
2022/01/03 09:48:01;;;;;;;8.05;2.67;;;;;;;;;;4974643;28;20084;-74
2022/01/03 09:50:27;;;;;;;5.90;2.58;;;;;;;;;;4957251;28;20372;-74
2022/01/03 09:52:52;;;;;;;8.15;2.67;;;;;;;;;;4992939;28;20337;-74
2022/01/03 09:55:20;;;;;;;4.07;2.58;;;;;;;;;;4991462;28;20341;-74
2022/01/03 09:57:46;;;;;;;3.35;2.42;;;;;;;;;;4992750;28;20383;-74
2022/01/03 10:00:22;;;;;;;4.72;2.40;;;;;;;;;;4992331;28;20347;-74
2022/01/03 10:02:49;;;;;;;3.88;2.13;;;;;;;;;;4991298;28;20512;-73
2022/01/03 10:05:14;;;;;;;6.20;3.20;;;;;;;;;;4991324;28;20467;-74
2022/01/03 10:07:40;;;;;;;8.43;3.75;;;;;;;;;;4991045;28;20344;-74
2022/01/03 10:10:07;;;;;;;3.97;2.28;;;;;;;;;;4992617;28;20523;-74
2022/01/03 10:12:34;;;;;;;8.52;2.47;;;;;;;;;;4991414;28;20443;-74
2022/01/03 10:15:00;;;;;;;3.28;1.92;;;;;;;;;;4991301;28;20459;-75
2022/01/03 10:17:25;;;;;;;6.68;2.50;;;;;;;;;;4991975;28;20542;-74
2022/01/03 10:20:02;;;;;;;6.22;2.05;;;;;;;;;;4991280;28;20432;-74
2022/01/03 10:22:30;;;;;;;3.88;1.80;;;;;;;;;;4991293;28;20509;-74
2022/01/03 10:24:57;;;;;;;5.57;2.60;;;;;;;;;;4990414;28;20414;-74
2022/01/03 10:27:24;;;;;;;3.78;2.00;;;;;;;;;;4991382;28;20043;-75
2022/01/03 10:29:55;;;;;;;4.80;2.25;;;;;;;;;;4990480;28;20513;-73
2022/01/03 10:32:27;;;;;;;5.53;2.17;;;;;;;;;;4992321;28;20375;-73
2022/01/03 10:34:54;;;;;;;4.05;2.00;;;;;;;;;;4991321;28;20377;-74
2022/01/03 10:37:33;;;;;;;2.92;1.75;;;;;;;;;;4989174;28;20029;-73
2022/01/03 10:39:58;;;;;;;5.88;2.03;;;;;;;;;;4990800;28;20048;-74
2022/01/03 10:42:24;;;;;;;3.75;1.65;;;;;;;;;;4989592;28;20476;-74
2022/01/03 10:44:49;;;;;;;2.90;1.70;;;;;;;;;;4990342;28;20454;-73
2022/01/03 10:47:30;;;;;;;4.20;1.92;;;;;;;;;;4972869;28;20330;-73
2022/01/03 10:49:56;;;;;;;4.22;1.92;;;;;;;;;;4972676;28;20379;-74
2022/01/03 10:52:22;;;;;;;5.70;2.20;;;;;;;;;;4989070;28;20376;-73
2022/01/03 10:55:09;;;;;;;3.30;1.98;;;;;;;;;;4990035;28;20418;-73
2022/01/03 10:57:54;;;;;;;5.85;1.98;;;;;;;;;;4988909;28;20033;-74
2022/01/03 11:00:40;;;;;;;3.60;2.22;;;;;;;;;;4988995;28;20362;-74
2022/01/03 11:05:40;;;;;;;2.50;1.50;;;;;;;;;;4971780;28;20399;-74
2022/01/03 11:10:44;;;;;;;3.22;2.03;;;;;;;;;;4972536;28;20382;-73
2022/01/03 11:13:16;;;;;;;3.35;1.40;;;;;;;;;;4990225;28;20487;-74
2022/01/03 11:15:59;;;;;;;3.22;1.42;;;;;;;;;;4990621;28;20359;-74
2022/01/03 11:18:27;;;;;;;2.47;1.80;;;;;;;;;;4990194;28;20440;-74
2022/01/03 11:21:13;;;;;;;3.28;1.60;;;;;;;;;;4991279;28;20364;-74
2022/01/03 11:23:40;;;;;;;2.65;1.73;;;;;;;;;;4991290;28;20455;-74
2022/01/03 11:26:08;;;;;;;4.60;1.30;;;;;;;;;;4989274;28;20380;-73
2022/01/03 11:28:34;;;;;;;3.17;1.50;;;;;;;;;;4989862;28;20436;-73
2022/01/03 11:31:00;;;;;;;2.85;1.40;;;;;;;;;;4989663;28;20462;-73
2022/01/03 11:33:26;;;;;;;3.75;1.60;;;;;;;;;;4988463;28;20447;-73
2022/01/03 11:35:52;;;;;;;2.35;1.50;;;;;;;;;;4990111;28;20418;-73
2022/01/03 11:38:22;;;;;;;2.58;1.35;;;;;;;;;;4971939;28;20401;-74
2022/01/03 11:40:48;;;;;;;2.92;1.45;;;;;;;;;;4989723;28;20402;-74
2022/01/03 11:43:14;;;;;;;2.72;1.83;;;;;;;;;;4971989;28;20328;-74
2022/01/03 11:45:40;;;;;;;3.17;1.60;;;;;;;;;;4971866;28;20344;-74
2022/01/03 11:48:10;;;;;;;2.45;1.02;;;;;;;;;;4988278;28;20440;-74
2022/01/03 11:50:37;;;;;;;2.70;1.27;;;;;;;;;;4971774;28;20025;-75
2022/01/03 11:53:06;;;;;;;3.10;1.13;;;;;;;;;;4971516;28;20328;-74
2022/01/03 11:55:34;;;;;;;3.00;1.35;;;;;;;;;;4987519;28;20421;-73
2022/01/03 12:03:38;;;;;;;2.97;1.53;;;;;;;;;;4974903;28;20094;-73
2022/01/03 12:06:06;;;;;;;1.88;1.05;;;;;;;;;;4988028;28;20686;-73
2022/01/03 12:08:37;;;;;;;2.20;1.38;;;;;;;;;;4989510;28;20486;-74
2022/01/03 12:11:27;;;;;;;2.80;1.40;;;;;;;;;;4971145;28;20410;-73
2022/01/03 12:14:11;;;;;;;2.70;1.15;;;;;;;;;;4971267;28;20476;-74
2022/01/03 12:16:47;;;;;;;2.80;1.50;;;;;;;;;;4987819;28;20550;-73
2022/01/03 12:19:42;;;;;;;2.17;1.17;;;;;;;;;;4987869;28;20383;-73
2022/01/03 12:22:23;;;;;;;2.40;1.38;;;;;;;;;;4990360;28;20509;-74
2022/01/03 12:25:02;;;;;;;2.67;1.30;;;;;;;;;;4988839;28;20505;-73
2022/01/03 12:27:39;;;;;;;2.50;1.30;;;;;;;;;;4988985;28;20526;-73
2022/01/03 12:30:13;;;;;;;2.38;1.08;;;;;;;;;;4970876;28;20476;-73
2022/01/03 12:33:05;;;;;;;3.25;1.17;;;;;;;;;;4971789;28;20430;-75
2022/01/03 12:35:30;;;;;;;3.65;1.20;;;;;;;;;;4983243;28;20517;-73
2022/01/03 12:38:02;;;;;;;3.28;1.40;;;;;;;;;;4987711;28;20395;-73
2022/01/03 12:40:30;;;;;;;2.97;1.27;;;;;;;;;;4988506;28;20391;-73
2022/01/03 12:43:06;;;;;;;3.22;1.40;;;;;;;;;;4988510;28;20487;-73
2022/01/03 12:45:32;;;;;;;3.97;1.50;;;;;;;;;;4989034;28;20029;-73
2022/01/03 12:48:09;;;;;;;3.08;1.58;;;;;;;;;;4988917;28;20021;-74
2022/01/03 12:50:53;;;;;;;3.05;1.40;;;;;;;;;;4988827;28;20411;-73
2022/01/03 12:53:21;;;;;;;2.05;1.00;;;;;;;;;;4988484;28;20399;-73
2022/01/03 12:55:48;;;;;;;4.40;2.00;;;;;;;;;;4988449;28;20413;-74
2022/01/03 12:58:13;;;;;;;4.75;1.63;;;;;;;;;;4988607;28;20474;-73
2022/01/03 13:00:43;;;;;;;2.08;1.20;;;;;;;;;;4988854;28;20444;-73
2022/01/03 13:03:28;;;;;;;3.03;1.40;;;;;;;;;;4989170;28;20348;-73
2022/01/03 13:06:14;;;;;;;2.40;1.05;;;;;;;;;;4988397;28;20535;-73
2022/01/03 13:08:42;;;;;;;3.63;1.45;;;;;;;;;;4988866;28;20029;-73
2022/01/03 13:11:10;;;;;;;2.15;1.27;;;;;;;;;;4989064;28;20116;-73
2022/01/03 13:13:37;;;;;;;4.20;1.38;;;;;;;;;;4988665;28;20355;-73
2022/01/03 13:16:29;;;;;;;4.15;2.03;;;;;;;;;;4970322;28;20347;-73
2022/01/03 13:18:57;;;;;;;3.72;1.60;;;;;;;;;;4956317;28;20527;-74
2022/01/03 13:21:25;;;;;;;6.13;1.90;;;;;;;;;;4925525;28;20535;-73
2022/01/03 13:23:52;;;;;;;3.87;1.70;;;;;;;;;;4979650;28;20432;-73
2022/01/03 13:26:17;;;;;;;2.58;1.50;;;;;;;;;;4989208;28;20435;-73
2022/01/03 13:28:47;;;;;;;4.07;1.83;;;;;;;;;;4991168;28;20444;-73
2022/01/03 13:31:13;;;;;;;2.10;1.55;;;;;;;;;;4974815;28;20029;-73
2022/01/03 13:33:38;;;;;;;4.97;1.92;;;;;;;;;;4974310;28;20424;-73
2022/01/03 13:36:05;;;;;;;3.80;1.73;;;;;;;;;;4992339;28;20029;-73
2022/01/03 13:38:31;;;;;;;7.88;2.03;;;;;;;;;;4992805;28;20033;-73
2022/01/03 13:41:17;;;;;;;4.57;1.67;;;;;;;;;;4992814;28;20376;-73
2022/01/03 13:43:54;;;;;;;6.38;1.85;;;;;;;;;;4991745;28;20487;-73
2022/01/03 13:49:13;;;;;;;3.42;1.65;;;;;;;;;;4991691;28;20549;-73
2022/01/03 13:51:47;;;;;;;2.83;1.60;;;;;;;;;;4989659;28;20483;-73
2022/01/03 13:54:22;;;;;;;4.53;2.00;;;;;;;;;;4991928;28;20029;-74
2022/01/03 13:56:47;;;;;;;2.05;1.20;;;;;;;;;;4989825;28;20555;-73
2022/01/03 13:59:13;;;;;;;3.83;1.67;;;;;;;;;;4990086;28;20420;-73
2022/01/03 14:01:39;;;;;;;3.05;1.80;;;;;;;;;;4973127;28;20505;-73
2022/01/03 14:04:04;;;;;;;3.42;1.40;;;;;;;;;;4992882;28;20052;-73
2022/01/03 14:06:29;;;;;;;3.55;1.60;;;;;;;;;;4991145;28;20347;-73
2022/01/03 14:08:55;;;;;;;5.15;1.88;;;;;;;;;;4989936;28;20479;-73
2022/01/03 14:11:22;;;;;;;3.25;1.40;;;;;;;;;;4992447;28;20341;-73
2022/01/03 14:13:48;;;;;;;5.25;1.60;;;;;;;;;;4989572;28;20025;-74
2022/01/03 14:16:14;;;;;;;4.43;2.00;;;;;;;;;;4991373;28;20436;-73
2022/01/03 14:18:48;;;;;;;4.28;1.63;;;;;;;;;;4989511;28;20399;-73
2022/01/03 14:21:26;;;;;;;3.00;1.35;;;;;;;;;;4991649;28;20424;-73
2022/01/03 14:23:53;;;;;;;6.50;2.30;;;;;;;;;;4991351;28;20336;-73
2022/01/03 14:26:24;;;;;;;7.13;2.33;;;;;;;;;;4990949;28;20021;-73
2022/01/03 14:28:50;;;;;;;6.80;2.33;;;;;;;;;;4990765;28;20048;-73
2022/01/03 14:31:15;;;;;;;3.95;2.47;;;;;;;;;;4973642;28;20329;-73
2022/01/03 14:33:41;;;;;;;5.18;2.20;;;;;;;;;;4991030;28;20367;-73
2022/01/03 14:36:16;;;;;;;5.47;2.38;;;;;;;;;;4990705;28;20368;-74
2022/01/03 14:38:45;;;;;;;4.85;2.70;;;;;;;;;;4972817;28;20400;-73
2022/01/03 14:41:24;;;;;;;5.65;2.30;;;;;;;;;;4990693;28;20087;-72
2022/01/03 14:43:54;;;;;;;;;;;;;;;;;;4972823;28;20435;-73
2022/01/03 14:46:28;;;;;;;5.72;1.80;;;;;;;;;;4990782;28;20374;-73
2022/01/03 14:48:53;;;;;;;8.68;3.42;;;;;;;;;;4989203;28;20343;-73
2022/01/03 14:51:18;;;;;;;6.68;2.53;;;;;;;;;;4990915;28;20036;-73
2022/01/03 14:53:44;;;;;;;5.80;2.60;;;;;;;;;;4990754;28;20052;-73
2022/01/03 14:56:27;;;;;;;6.45;2.85;;;;;;;;;;4989323;28;20336;-72
2022/01/03 14:59:29;;;;;;;6.25;2.75;;;;;;;;;;4972791;28;20029;-73
2022/01/03 15:01:56;;;;;;;6.38;2.78;;;;;;;;;;4946153;28;20034;-73
2022/01/03 15:04:23;;;;;;;5.95;2.50;;;;;;;;;;4980038;28;20470;-73
2022/01/03 15:06:49;;;;;;;5.22;2.80;;;;;;;;;;4988186;28;20033;-73
2022/01/03 15:09:14;;;;;;;6.50;2.58;;;;;;;;;;4987991;28;20491;-73
2022/01/03 15:11:40;;;;;;;4.82;2.50;;;;;;;;;;4987961;28;20443;-74